Terminal Aerodrome Forecast
Issued by NWS

Home | Current Version | Previous Version | Text Only | Print | Product List | Glossary On
Versions: 1 2 3 4 5 6 7 8 9 10 11 12 13 14 15 16 17
000
FTUS46 KSEW 021400 AAB
TAFOLM
TAF AMD
KOLM 021427Z 0214/0312 00000KT P6SM MIFG SCT150
      TEMPO 0214/0215 3SM BCFG SCT001 SCT150
     FM021600 VRB03KT P6SM SCT050 SCT150
     FM030900 00000KT 2SM BR SCT002 SCT050=

USA.gov is the U.S. government's official web portal to all federal, state and local government web resources and services.